createdAt,value
2018-03-04T00:00:00.998Z,-6
2018-03-04T00:01:02.383Z,-6
2018-03-04T00:02:03.245Z,-6
2018-03-04T00:03:04.256Z,-7
2018-03-04T00:04:05.252Z,-6
2018-03-04T00:05:06.535Z,-7
2018-03-04T00:06:07.237Z,-7
2018-03-04T00:07:07.951Z,-7
2018-03-04T00:08:08.970Z,-6
2018-03-04T00:09:09.930Z,-7
2018-03-04T00:10:11.290Z,-6
2018-03-04T00:11:11.601Z,-8
2018-03-04T00:12:12.555Z,-8
2018-03-04T00:13:13.649Z,-6
2018-03-04T00:14:14.576Z,-8
2018-03-04T00:15:15.925Z,-6
2018-03-04T00:16:17.383Z,-7
2018-03-04T00:17:20.319Z,-7
2018-03-04T00:18:19.405Z,-6
2018-03-04T00:19:20.301Z,-6
2018-03-04T00:20:21.616Z,-7
2018-03-04T00:21:21.909Z,-6
2018-03-04T00:22:23.047Z,-6
2018-03-04T00:23:24.163Z,-6
2018-03-04T00:24:24.971Z,-6
2018-03-04T00:25:26.285Z,-6
2018-03-04T00:26:26.531Z,-6
2018-03-04T00:27:27.637Z,-6
2018-03-04T00:28:28.711Z,-6
2018-03-04T00:29:29.558Z,-7
2018-03-04T00:30:30.856Z,-7
2018-03-04T00:31:32.158Z,-6
2018-03-04T00:32:33.209Z,-7
2018-03-04T00:33:34.335Z,-6
2018-03-04T00:34:35.214Z,-7
2018-03-04T00:35:36.509Z,-6
2018-03-04T00:36:36.875Z,-6
2018-03-04T00:37:37.936Z,-5
2018-03-04T00:38:39.059Z,-6
2018-03-04T00:39:40.050Z,-6
2018-03-04T00:40:41.168Z,-6
2018-03-04T00:41:42.681Z,-7
2018-03-04T00:42:43.531Z,-6
2018-03-04T00:43:44.600Z,-6
2018-03-04T00:44:45.638Z,-5
2018-03-04T00:45:46.859Z,-5
2018-03-04T00:46:47.317Z,-6
2018-03-04T00:47:48.395Z,-5
2018-03-04T00:48:49.330Z,-8
2018-03-04T00:49:50.458Z,-6
2018-03-04T00:50:51.650Z,-5
2018-03-04T00:51:51.929Z,-6
2018-03-04T00:52:53.222Z,-6
2018-03-04T00:53:54.157Z,-7
2018-03-04T00:54:54.969Z,-7
2018-03-04T00:55:56.664Z,-7
2018-03-04T00:56:57.735Z,-7
2018-03-04T00:57:58.801Z,-6
2018-03-04T00:58:59.698Z,-6
2018-03-04T01:00:00.840Z,-5
2018-03-04T01:01:02.839Z,-6
2018-03-04T01:02:03.409Z,-6
2018-03-04T01:03:04.477Z,-6
2018-03-04T01:04:05.408Z,-5
2018-03-04T01:05:06.591Z,-5
2018-03-04T01:06:07.472Z,-6
2018-03-04T01:07:07.979Z,-6
2018-03-04T01:08:08.974Z,-7
2018-03-04T01:09:10.022Z,-6
2018-03-04T01:10:11.031Z,-6
2018-03-04T01:11:12.041Z,-6
2018-03-04T01:12:13.040Z,-6
2018-03-04T01:13:13.714Z,-6
2018-03-04T01:14:14.794Z,-6
2018-03-04T01:15:15.726Z,-6
2018-03-04T01:16:17.686Z,-7
2018-03-04T01:17:18.336Z,-5
2018-03-04T01:18:19.340Z,-6
2018-03-04T01:19:20.747Z,-5
2018-03-04T01:20:21.293Z,-6
2018-03-04T01:21:22.486Z,-7
2018-03-04T01:22:23.050Z,-6
2018-03-04T01:23:24.080Z,-7
2018-03-04T01:24:25.386Z,-5
2018-03-04T01:25:26.119Z,-5
2018-03-04T01:26:26.997Z,-6
2018-03-04T01:27:27.861Z,-5
2018-03-04T01:28:28.729Z,-6
2018-03-04T01:29:29.872Z,-7
2018-03-04T01:30:30.761Z,-5
2018-03-04T01:31:32.661Z,-6
2018-03-04T01:32:33.421Z,-6
2018-03-04T01:33:34.390Z,-7
2018-03-04T01:34:35.624Z,-7
2018-03-04T01:35:36.418Z,-7
2018-03-04T01:36:37.422Z,-5
2018-03-04T01:37:38.106Z,-7
2018-03-04T01:38:39.073Z,-5
2018-03-04T01:39:40.110Z,-6
2018-03-04T01:40:41.050Z,-6
2018-03-04T01:41:42.351Z,-7
2018-03-04T01:42:42.865Z,-6
2018-03-04T01:43:43.771Z,-6
2018-03-04T01:44:44.733Z,-7
2018-03-04T01:45:45.827Z,-6
2018-03-04T01:46:47.907Z,-5
2018-03-04T01:47:48.549Z,-6
2018-03-04T01:48:49.435Z,-5
2018-03-04T01:49:50.481Z,-5
2018-03-04T01:50:51.499Z,-6
2018-03-04T01:51:52.509Z,-7
2018-03-04T01:52:53.267Z,-5
2018-03-04T01:53:54.363Z,-6
2018-03-04T01:54:55.451Z,-5
2018-03-04T01:55:56.344Z,-5
2018-03-04T01:56:57.291Z,-5
2018-03-04T01:57:58.075Z,-5
2018-03-04T01:58:58.875Z,-5
2018-03-04T01:59:59.966Z,-6
2018-03-04T02:01:01.129Z,-5
2018-03-04T02:02:02.416Z,-7
2018-03-04T02:03:03.262Z,-5
2018-03-04T02:04:04.045Z,-5
2018-03-04T02:05:05.315Z,-6
2018-03-04T02:06:06.472Z,-5
2018-03-04T02:07:08.191Z,-5
2018-03-04T02:08:08.782Z,-6
2018-03-04T02:09:09.827Z,-6
2018-03-04T02:10:10.738Z,-5
2018-03-04T02:11:12.494Z,-5
2018-03-04T02:12:13.798Z,-5
2018-03-04T02:13:15.130Z,-5
2018-03-04T02:14:15.464Z,-5
2018-03-04T02:15:16.720Z,-6
2018-03-04T02:16:17.406Z,-5
2018-03-04T02:17:18.591Z,-5
2018-03-04T02:18:19.250Z,-5
2018-03-04T02:19:20.178Z,-6
2018-03-04T02:20:21.199Z,-5
2018-03-04T02:21:21.920Z,-5
2018-03-04T02:22:23.277Z,-5
2018-03-04T02:23:23.977Z,-5
2018-03-04T02:24:24.927Z,-5
2018-03-04T02:25:26.033Z,-5
2018-03-04T02:26:26.579Z,-7
2018-03-04T02:27:28.097Z,-5
2018-03-04T02:28:28.599Z,-5
2018-03-04T02:29:29.531Z,-6
2018-03-04T02:30:30.589Z,-5
2018-03-04T02:31:32.309Z,-5
2018-03-04T02:32:33.585Z,-5
2018-03-04T02:33:34.257Z,-5
2018-03-04T02:34:35.464Z,-4
2018-03-04T02:35:36.289Z,-5
2018-03-04T02:36:36.943Z,-5
2018-03-04T02:37:38.227Z,-5
2018-03-04T02:38:38.872Z,-5
2018-03-04T02:39:40.149Z,-6
2018-03-04T02:40:40.978Z,-5
2018-03-04T02:41:41.593Z,-6
2018-03-04T02:42:43.038Z,-5
2018-03-04T02:43:44.170Z,-5
2018-03-04T02:44:44.662Z,-5
2018-03-04T02:45:45.626Z,-7
2018-03-04T02:46:47.440Z,-6
2018-03-04T02:47:48.677Z,-6
2018-03-04T02:48:49.405Z,-5
2018-03-04T02:49:50.347Z,-5
2018-03-04T02:50:51.399Z,-5
2018-03-04T02:51:52.041Z,-5
2018-03-04T02:52:53.480Z,-6
2018-03-04T02:53:54.061Z,-5
2018-03-04T02:54:54.992Z,-6
2018-03-04T02:55:56.018Z,-4
2018-03-04T02:56:56.697Z,-5
2018-03-04T02:57:58.048Z,-5
2018-03-04T02:58:58.646Z,-5
2018-03-04T02:59:59.807Z,-7
2018-03-04T03:01:00.773Z,-6
2018-03-04T03:02:02.273Z,-5
2018-03-04T03:03:03.561Z,-5
2018-03-04T03:04:04.287Z,-5
2018-03-04T03:05:05.456Z,-6
2018-03-04T03:06:06.213Z,-4
2018-03-04T03:07:06.898Z,-6
2018-03-04T03:08:08.297Z,-6
2018-03-04T03:09:08.930Z,-5
2018-03-04T03:10:09.932Z,-6
2018-03-04T03:11:11.583Z,-5
2018-03-04T03:12:11.843Z,-6
2018-03-04T03:13:13.179Z,-4
2018-03-04T03:14:13.899Z,-5
2018-03-04T03:15:14.801Z,-5
2018-03-04T03:16:16.137Z,-5
2018-03-04T03:17:17.538Z,-6
2018-03-04T03:18:19.085Z,-5
2018-03-04T03:19:19.869Z,-6
2018-03-04T03:20:20.489Z,-5
2018-03-04T03:21:21.229Z,-5
2018-03-04T03:22:22.245Z,-4
2018-03-04T03:23:23.540Z,-5
2018-03-04T03:24:24.198Z,-6
2018-03-04T03:25:25.249Z,-6
2018-03-04T03:26:25.967Z,-4
2018-03-04T03:27:26.957Z,-6
2018-03-04T03:28:28.444Z,-5
2018-03-04T03:29:28.906Z,-6
2018-03-04T03:30:29.870Z,-6
2018-03-04T03:31:30.687Z,-5
2018-03-04T03:32:31.688Z,-5
2018-03-04T03:33:32.998Z,-6
2018-03-04T03:34:33.739Z,-4
2018-03-04T03:35:34.679Z,-5
2018-03-04T03:36:36.327Z,-5
2018-03-04T03:37:37.266Z,-5
2018-03-04T03:38:38.603Z,-4
2018-03-04T03:39:39.342Z,-6
2018-03-04T03:40:40.269Z,-4
2018-03-04T03:41:41.162Z,-5
2018-03-04T03:42:41.979Z,-4
2018-03-04T03:43:43.460Z,-6
2018-03-04T03:44:44.096Z,-5
2018-03-04T03:45:45.018Z,-5
2018-03-04T03:46:45.851Z,-6
2018-03-04T03:47:46.767Z,-4
2018-03-04T03:48:48.042Z,-6
2018-03-04T03:49:48.945Z,-4
2018-03-04T03:50:49.693Z,-4
2018-03-04T03:51:51.556Z,-6
2018-03-04T03:52:52.387Z,-4
2018-03-04T03:53:53.911Z,-4
2018-03-04T03:54:54.600Z,-4
2018-03-04T03:55:55.410Z,-6
2018-03-04T03:56:56.087Z,-4
2018-03-04T03:57:57.152Z,-6
2018-03-04T03:58:58.379Z,-4
2018-03-04T03:59:59.286Z,-4
2018-03-04T04:01:00.014Z,-4
2018-03-04T04:02:00.743Z,-6
2018-03-04T04:03:01.960Z,-5
2018-03-04T04:04:03.264Z,-5
2018-03-04T04:05:03.988Z,-4
2018-03-04T04:06:04.745Z,-6
2018-03-04T04:07:06.329Z,-4
2018-03-04T04:08:07.400Z,-4
2018-03-04T04:09:08.681Z,-4
2018-03-04T04:10:09.389Z,-5
2018-03-04T04:11:10.678Z,-4
2018-03-04T04:12:11.136Z,-4
2018-03-04T04:13:12.017Z,-6
2018-03-04T04:14:13.405Z,-4
2018-03-04T04:15:14.032Z,-4
2018-03-04T04:16:15.097Z,-4
2018-03-04T04:17:15.761Z,-4
2018-03-04T04:18:16.665Z,-6
2018-03-04T04:19:18.065Z,-5
2018-03-04T04:20:18.669Z,-4
2018-03-04T04:21:19.892Z,-4
2018-03-04T04:22:20.895Z,-4
2018-03-04T04:23:21.761Z,-4
2018-03-04T04:24:23.069Z,-4
2018-03-04T04:25:23.823Z,-4
2018-03-04T04:26:25.070Z,-5
2018-03-04T04:27:26.576Z,-4
2018-03-04T04:28:27.613Z,-4
2018-03-04T04:29:28.827Z,-5
2018-03-04T04:30:29.469Z,-4
2018-03-04T04:31:30.061Z,-4
2018-03-04T04:32:31.179Z,-4
2018-03-04T04:33:32.145Z,-4
2018-03-04T04:34:33.505Z,-4
2018-03-04T04:35:34.330Z,-4
2018-03-04T04:36:34.775Z,-4
2018-03-04T04:37:35.831Z,-4
2018-03-04T04:38:36.948Z,-4
2018-03-04T04:39:38.079Z,-4
2018-03-04T04:40:38.729Z,-4
2018-03-04T04:41:40.440Z,-5
2018-03-04T04:42:41.349Z,-4
2018-03-04T04:43:42.452Z,-4
2018-03-04T04:44:43.676Z,-4
2018-03-04T04:45:44.639Z,-4
2018-03-04T04:46:44.959Z,-4
2018-03-04T04:47:46.260Z,-4
2018-03-04T04:48:46.962Z,-3
2018-03-04T04:49:48.399Z,-4
2018-03-04T04:50:48.939Z,-4
2018-03-04T04:51:50.024Z,-4
2018-03-04T04:52:50.665Z,-4
2018-03-04T04:53:51.701Z,-4
2018-03-04T04:54:53.201Z,-4
2018-03-04T04:55:53.908Z,-5
2018-03-04T04:56:55.547Z,-5
2018-03-04T04:57:56.429Z,-4
2018-03-04T04:58:57.373Z,-4
2018-03-04T04:59:58.672Z,-5
2018-03-04T05:00:59.407Z,-4
2018-03-04T05:02:00.150Z,-5
2018-03-04T05:03:01.256Z,-4
2018-03-04T05:04:02.555Z,-4
2018-03-04T05:05:03.467Z,-4
2018-03-04T05:06:04.139Z,-4
2018-03-04T05:07:05.449Z,-4
2018-03-04T05:08:06.106Z,-4
2018-03-04T05:09:06.899Z,-3
2018-03-04T05:10:08.159Z,-4
2018-03-04T05:11:08.791Z,-4
2018-03-04T05:12:09.570Z,-4
2018-03-04T05:13:11.001Z,-5
2018-03-04T05:14:11.569Z,-4
2018-03-04T05:15:12.903Z,-3
2018-03-04T05:16:13.746Z,-5
2018-03-04T05:17:15.575Z,-5
2018-03-04T05:18:16.318Z,-3
2018-03-04T05:19:17.432Z,-5
2018-03-04T05:20:18.568Z,-4
2018-03-04T05:21:19.397Z,-4
2018-03-04T05:22:20.101Z,-4
2018-03-04T05:23:20.873Z,-4
2018-03-04T05:24:22.047Z,-5
2018-03-04T05:25:23.252Z,-4
2018-03-04T05:26:23.990Z,-4
2018-03-04T05:27:24.749Z,-4
2018-03-04T05:28:25.738Z,-4
2018-03-04T05:29:26.697Z,-5
2018-03-04T05:30:28.077Z,-4
2018-03-04T05:31:28.687Z,-4
2018-03-04T05:32:30.016Z,-4
2018-03-04T05:33:30.790Z,-4
2018-03-04T05:34:31.808Z,-5
2018-03-04T05:35:33.336Z,-3
2018-03-04T05:36:34.080Z,-4
2018-03-04T05:37:35.497Z,-4
2018-03-04T05:38:36.427Z,-4
2018-03-04T05:39:37.470Z,-4
2018-03-04T05:40:38.922Z,-4
2018-03-04T05:41:39.199Z,-5
2018-03-04T05:42:40.160Z,-3
2018-03-04T05:43:41.315Z,-4
2018-03-04T05:44:42.239Z,-5
2018-03-04T05:45:43.577Z,-4
2018-03-04T05:46:43.903Z,-4
2018-03-04T05:47:44.859Z,-4
2018-03-04T05:48:45.883Z,-4
2018-03-04T05:49:47.827Z,-4
2018-03-04T05:50:48.245Z,-5
2018-03-04T05:51:48.481Z,-4
2018-03-04T05:52:49.772Z,-4
2018-03-04T05:53:50.529Z,-4
2018-03-04T05:54:51.589Z,-4
2018-03-04T05:55:52.986Z,-4
2018-03-04T05:56:54.469Z,-4
2018-03-04T05:57:55.328Z,-4
2018-03-04T05:58:56.365Z,-5
2018-03-04T05:59:57.494Z,-4
2018-03-04T06:00:58.784Z,-4
2018-03-04T06:01:59.077Z,-4
2018-03-04T06:03:00.595Z,-6
2018-03-04T06:04:01.037Z,-4
2018-03-04T06:05:02.072Z,-3
2018-03-04T06:06:03.430Z,-3
2018-03-04T06:07:03.748Z,-3
2018-03-04T06:08:04.932Z,-4
2018-03-04T06:09:05.776Z,-4
2018-03-04T06:10:06.697Z,-5
2018-03-04T06:11:08.438Z,-3
2018-03-04T06:12:09.571Z,-4
2018-03-04T06:13:11.720Z,-4
2018-03-04T06:14:11.748Z,-3
2018-03-04T06:15:12.699Z,-3
2018-03-04T06:16:13.976Z,-4
2018-03-04T06:17:14.145Z,-3
2018-03-04T06:18:15.344Z,-4
2018-03-04T06:19:16.107Z,-5
2018-03-04T06:20:17.337Z,-4
2018-03-04T06:21:18.680Z,-3
2018-03-04T06:22:18.899Z,-4
2018-03-04T06:23:19.898Z,-2
2018-03-04T06:24:20.907Z,-4
2018-03-04T06:25:21.889Z,-3
2018-03-04T06:26:23.342Z,-3
2018-03-04T06:27:23.646Z,-3
2018-03-04T06:28:24.768Z,-3
2018-03-04T06:29:25.663Z,-4
2018-03-04T06:30:26.989Z,-4
2018-03-04T06:31:27.939Z,-3
2018-03-04T06:32:29.515Z,-4
2018-03-04T06:33:30.354Z,-4
2018-03-04T06:34:31.327Z,-3
2018-03-04T06:35:32.332Z,-4
2018-03-04T06:36:33.898Z,-4
2018-03-04T06:37:34.116Z,-4
2018-03-04T06:38:35.200Z,-4
2018-03-04T06:39:36.212Z,-4
2018-03-04T06:40:37.054Z,-4
2018-03-04T06:41:38.441Z,-4
2018-03-04T06:42:39.053Z,-3
2018-03-04T06:43:40.194Z,-4
2018-03-04T06:44:41.119Z,-4
2018-03-04T06:45:42.220Z,-3
2018-03-04T06:46:44.217Z,-4
2018-03-04T06:47:44.920Z,-3
2018-03-04T06:48:45.829Z,-3
2018-03-04T06:49:47.035Z,-4
2018-03-04T06:50:48.048Z,-3
2018-03-04T06:51:49.870Z,-3
2018-03-04T06:52:50.731Z,-3
2018-03-04T06:53:52.037Z,-4
2018-03-04T06:54:52.782Z,-2
2018-03-04T06:55:53.611Z,-4
2018-03-04T06:56:55.066Z,-4
2018-03-04T06:57:55.709Z,-3
2018-03-04T06:58:56.775Z,-3
2018-03-04T06:59:57.858Z,-3
2018-03-04T07:00:58.576Z,-4
2018-03-04T07:01:59.839Z,-3
2018-03-04T07:03:00.832Z,-3
2018-03-04T07:04:01.635Z,-4
2018-03-04T07:05:02.561Z,-4
2018-03-04T07:06:03.644Z,-3
2018-03-04T07:07:04.525Z,-4
2018-03-04T07:08:05.416Z,-4
2018-03-04T07:09:06.410Z,-3
2018-03-04T07:10:07.590Z,-4
2018-03-04T07:11:08.340Z,-3
2018-03-04T07:12:09.475Z,-3
2018-03-04T07:13:10.081Z,-3
2018-03-04T07:14:11.406Z,-4
2018-03-04T07:15:12.363Z,-4
2018-03-04T07:16:13.227Z,-2
2018-03-04T07:17:14.172Z,-4
2018-03-04T07:18:15.080Z,-2
2018-03-04T07:19:16.039Z,-2
2018-03-04T07:20:17.357Z,-4
2018-03-04T07:21:18.199Z,-2
2018-03-04T07:22:19.294Z,-3
2018-03-04T07:23:19.870Z,-4
2018-03-04T07:24:20.641Z,-3
2018-03-04T07:25:21.923Z,-3
2018-03-04T07:26:22.953Z,-2
2018-03-04T07:27:24.707Z,-3
2018-03-04T07:28:25.755Z,-4
2018-03-04T07:29:26.528Z,-2
2018-03-04T07:30:27.341Z,-4
2018-03-04T07:31:28.219Z,-2
2018-03-04T07:32:29.543Z,-4
2018-03-04T07:33:30.055Z,-4
2018-03-04T07:34:31.412Z,-3
2018-03-04T07:35:32.302Z,-3
2018-03-04T07:36:33.356Z,-3
2018-03-04T07:37:34.434Z,-3
2018-03-04T07:38:35.095Z,-3
2018-03-04T07:39:36.389Z,-2
2018-03-04T07:40:37.180Z,-2
2018-03-04T07:41:37.960Z,-2
2018-03-04T07:42:39.966Z,-3
2018-03-04T07:43:40.631Z,-2
2018-03-04T07:44:41.700Z,-3
2018-03-04T07:45:42.836Z,-4
2018-03-04T07:46:43.701Z,-2
2018-03-04T07:48:45.436Z,-1
2018-03-04T07:49:47.110Z,-3
2018-03-04T07:50:47.442Z,-2
2018-03-04T07:51:48.562Z,-2
2018-03-04T07:53:49.887Z,-1
2018-03-04T07:54:53.092Z,-4
2018-03-04T07:55:52.000Z,-2
2018-03-04T07:56:52.912Z,-2
2018-03-04T07:57:54.545Z,-2
2018-03-04T07:58:55.340Z,-1
2018-03-04T07:59:55.856Z,-1
2018-03-04T08:00:57.382Z,-3
2018-03-04T08:01:58.378Z,-4
2018-03-04T08:03:00.494Z,-2
2018-03-04T08:04:01.504Z,-1
2018-03-04T08:05:01.816Z,-3
2018-03-04T08:06:02.700Z,-2
2018-03-04T08:07:23.505Z,-2
2018-03-04T08:08:04.839Z,-1
2018-03-04T08:09:05.899Z,-3
2018-03-04T08:10:06.684Z,-3
2018-03-04T08:11:07.731Z,-2
2018-03-04T08:12:09.409Z,-3
2018-03-04T08:13:10.650Z,-2
2018-03-04T08:14:11.653Z,-2
2018-03-04T08:15:12.332Z,-2
2018-03-04T08:16:13.519Z,-2
2018-03-04T08:17:14.017Z,-2
2018-03-04T08:18:15.015Z,-2
2018-03-04T08:19:16.594Z,-2
2018-03-04T08:20:17.164Z,-4
2018-03-04T08:21:18.185Z,-3
2018-03-04T08:22:18.941Z,-2
2018-03-04T08:23:19.901Z,-1
2018-03-04T08:25:21.672Z,-3
2018-03-04T08:26:22.785Z,-4
2018-03-04T08:27:24.866Z,-2
2018-03-04T08:28:26.406Z,-2
2018-03-04T08:29:26.535Z,-3
2018-03-04T08:30:28.665Z,-2
2018-03-04T08:31:28.550Z,-2
2018-03-04T08:32:29.185Z,-3
2018-03-04T08:33:30.745Z,-2
2018-03-04T08:34:31.343Z,-2
2018-03-04T08:35:32.647Z,-2
2018-03-04T08:36:33.431Z,-3
2018-03-04T08:37:34.509Z,-4
2018-03-04T08:38:35.486Z,-3
2018-03-04T08:39:36.537Z,-1
2018-03-04T08:40:37.950Z,-2
2018-03-04T08:41:38.431Z,-1
2018-03-04T08:42:39.077Z,-1
2018-03-04T08:43:40.137Z,-2
2018-03-04T08:44:41.144Z,-2
2018-03-04T08:45:42.267Z,-3
2018-03-04T08:46:43.046Z,-2
2018-03-04T08:47:43.715Z,-3
2018-03-04T08:48:44.846Z,-2
2018-03-04T08:49:45.818Z,-2
2018-03-04T08:50:47.370Z,-3
2018-03-04T08:51:47.789Z,-2
2018-03-04T08:52:49.382Z,-3
2018-03-04T08:53:50.562Z,-2
2018-03-04T08:54:51.597Z,-2
2018-03-04T08:55:52.620Z,-1
2018-03-04T08:56:53.495Z,-2
2018-03-04T08:57:54.391Z,-3
2018-03-04T08:58:55.079Z,-2
2018-03-04T08:59:56.177Z,-3
2018-03-04T09:00:57.867Z,-2
2018-03-04T09:01:58.270Z,-2
2018-03-04T09:02:58.876Z,-3
2018-03-04T09:03:59.833Z,-1
2018-03-04T09:05:01.017Z,-3
2018-03-04T09:07:03.745Z,-3
2018-03-04T09:08:22.855Z,-2
2018-03-04T09:09:07.209Z,-3
2018-03-04T09:10:05.900Z,-3
2018-03-04T09:11:06.815Z,-2
2018-03-04T09:13:08.940Z,-2
2018-03-04T09:14:10.072Z,-2
2018-03-04T09:15:11.644Z,-1
2018-03-04T09:16:12.568Z,-3
2018-03-04T09:17:13.614Z,-1
2018-03-04T09:18:15.234Z,-3
2018-03-04T09:19:16.307Z,-2
2018-03-04T09:21:54.900Z,-1
2018-03-04T09:22:56.753Z,-2
2018-03-04T09:24:58.495Z,-2
2018-03-04T09:25:59.528Z,-3
2018-03-04T09:27:00.892Z,-2
2018-03-04T09:29:45.404Z,-3
2018-03-04T09:30:47.350Z,-1
2018-03-04T09:31:48.146Z,-3
2018-03-04T09:32:48.733Z,-2
2018-03-04T09:33:49.848Z,-3
2018-03-04T09:34:51.292Z,-2
2018-03-04T09:35:54.202Z,-1
2018-03-04T09:37:33.178Z,-3
2018-03-04T09:42:24.329Z,-2
2018-03-04T09:45:42.857Z,-2
2018-03-04T09:46:39.977Z,0
2018-03-04T09:51:52.405Z,-2
2018-03-04T09:53:20.807Z,-3
2018-03-04T09:56:24.646Z,-2
2018-03-04T10:00:57.637Z,-2
2018-03-04T10:05:54.550Z,-1
2018-03-04T10:10:31.574Z,-3
2018-03-04T10:17:11.024Z,-3
2018-03-04T10:20:16.405Z,-1
2018-03-04T10:24:13.042Z,0
2018-03-04T10:28:10.528Z,-2
2018-03-04T10:35:23.197Z,-3
2018-03-04T10:38:26.831Z,-1
2018-03-04T10:42:41.896Z,-1
2018-03-04T10:45:39.899Z,-1
2018-03-04T10:47:30.505Z,-3
2018-03-04T10:50:32.088Z,-3
2018-03-04T10:57:07.040Z,0
2018-03-04T11:00:56.927Z,-1
2018-03-04T11:03:56.722Z,-1
2018-03-04T11:05:45.166Z,-2
2018-03-04T11:11:04.303Z,-2
2018-03-04T11:12:00.429Z,-1
2018-03-04T11:14:47.933Z,0
2018-03-04T11:17:18.669Z,0
2018-03-04T11:18:31.453Z,0
2018-03-04T11:21:31.147Z,0
2018-03-04T11:25:24.355Z,-2
2018-03-04T11:28:17.939Z,-1
2018-03-04T11:30:07.235Z,0
2018-03-04T11:32:46.839Z,0
2018-03-04T11:37:20.787Z,0
2018-03-04T11:40:04.211Z,-2
2018-03-04T11:41:41.923Z,0
2018-03-04T11:49:05.652Z,-1
2018-03-04T11:54:03.633Z,-2
2018-03-04T12:00:09.329Z,0
2018-03-04T12:07:50.720Z,0
2018-03-04T12:10:51.440Z,-1
2018-03-04T12:13:32.977Z,0
2018-03-04T12:14:31.658Z,-1
2018-03-04T12:15:32.842Z,-1
2018-03-04T12:16:33.687Z,0
2018-03-04T12:17:35.979Z,-1
2018-03-04T12:18:36.572Z,1
2018-03-04T12:19:37.449Z,0
2018-03-04T12:20:38.495Z,-1
2018-03-04T12:21:41.491Z,0
2018-03-04T12:22:40.399Z,-1
2018-03-04T12:23:41.056Z,-1
2018-03-04T12:24:42.117Z,1
2018-03-04T12:25:43.238Z,0
2018-03-04T12:26:44.363Z,1
2018-03-04T12:27:45.387Z,1
2018-03-04T12:28:45.786Z,0
2018-03-04T12:31:30.206Z,1
2018-03-04T12:32:34.580Z,-1
2018-03-04T12:33:34.270Z,1
2018-03-04T12:34:34.747Z,1
2018-03-04T12:35:35.796Z,-1
2018-03-04T12:36:36.795Z,1
2018-03-04T12:37:37.500Z,-1
2018-03-04T12:38:38.727Z,0
2018-03-04T12:39:39.342Z,0
2018-03-04T12:40:40.625Z,-1
2018-03-04T12:41:41.614Z,-1
2018-03-04T12:42:42.545Z,0
2018-03-04T12:43:43.734Z,1
2018-03-04T12:44:48.541Z,0
2018-03-04T12:45:45.514Z,0
2018-03-04T12:46:46.339Z,0
2018-03-04T12:47:47.137Z,0
2018-03-04T12:48:48.902Z,0
2018-03-04T12:49:49.346Z,1
2018-03-04T12:50:50.347Z,0
2018-03-04T12:51:51.317Z,-1
2018-03-04T12:52:52.448Z,0
2018-03-04T12:54:00.172Z,0
2018-03-04T12:56:38.891Z,0
2018-03-04T12:59:29.419Z,1
2018-03-04T13:00:36.223Z,1
2018-03-04T13:02:29.184Z,1
2018-03-04T13:03:29.964Z,1
2018-03-04T13:04:29.168Z,1
2018-03-04T13:05:30.145Z,-1
2018-03-04T13:06:30.989Z,1
2018-03-04T13:07:31.966Z,1
2018-03-04T13:08:33.212Z,-1
2018-03-04T13:09:33.778Z,1
2018-03-04T13:10:35.242Z,-1
2018-03-04T13:11:35.997Z,2
2018-03-04T13:12:38.742Z,0
2018-03-04T13:13:37.823Z,1
2018-03-04T13:14:39.408Z,1
2018-03-04T13:15:40.747Z,1
2018-03-04T13:16:41.602Z,0
2018-03-04T13:17:42.369Z,1
2018-03-04T13:18:43.507Z,1
2018-03-04T13:19:45.497Z,1
2018-03-04T13:20:45.931Z,0
2018-03-04T13:21:48.859Z,2
2018-03-04T13:22:48.163Z,-1
2018-03-04T13:23:49.559Z,-1
2018-03-04T13:24:49.694Z,1
2018-03-04T13:25:50.755Z,1
2018-03-04T13:26:51.592Z,1
2018-03-04T13:27:52.491Z,2
2018-03-04T13:28:53.562Z,1
2018-03-04T13:29:54.546Z,1
2018-03-04T13:30:55.806Z,2
2018-03-04T13:31:56.268Z,1
2018-03-04T13:32:57.398Z,2
2018-03-04T13:33:58.177Z,2
2018-03-04T13:34:59.406Z,-1
2018-03-04T13:36:00.717Z,1
2018-03-04T13:37:01.219Z,2
2018-03-04T13:38:02.147Z,2
2018-03-04T13:39:03.254Z,1
2018-03-04T13:40:04.189Z,2
2018-03-04T13:41:06.552Z,2
2018-03-04T13:42:06.142Z,-1
2018-03-04T13:43:07.201Z,2
2018-03-04T13:44:07.918Z,1
2018-03-04T13:45:08.885Z,1
2018-03-04T13:46:10.344Z,2
2018-03-04T13:47:10.767Z,2
2018-03-04T13:48:11.960Z,2
2018-03-04T13:49:13.548Z,2
2018-03-04T13:50:14.733Z,1
2018-03-04T13:51:16.074Z,-1
2018-03-04T13:52:16.695Z,2
2018-03-04T13:53:17.626Z,2
2018-03-04T13:54:18.831Z,1
2018-03-04T13:56:22.391Z,1
2018-03-04T13:57:22.202Z,1
2018-03-04T13:58:22.589Z,1
2018-03-04T13:59:23.761Z,2
2018-03-04T14:00:24.797Z,2
2018-03-04T14:01:27.702Z,2
2018-03-04T14:02:26.737Z,2
2018-03-04T14:03:29.637Z,2
2018-03-04T14:04:28.548Z,2
2018-03-04T14:05:29.661Z,2
2018-03-04T14:06:30.669Z,1
2018-03-04T14:07:31.886Z,1
2018-03-04T14:08:32.597Z,1
2018-03-04T14:09:33.163Z,2
2018-03-04T14:10:34.335Z,1
2018-03-04T14:11:35.656Z,1
2018-03-04T14:12:36.068Z,2
2018-03-04T14:13:37.603Z,2
2018-03-04T14:14:37.941Z,1
2018-03-04T14:15:39.168Z,0
2018-03-04T14:16:40.436Z,2
2018-03-04T14:18:48.074Z,-1
2018-03-04T14:19:49.756Z,2
2018-03-04T14:21:51.033Z,2
2018-03-04T14:22:52.433Z,1
2018-03-04T14:23:53.198Z,2
2018-03-04T14:24:54.505Z,2
2018-03-04T14:26:56.501Z,2
2018-03-04T14:27:57.056Z,2
2018-03-04T14:28:58.127Z,3
2018-03-04T14:29:59.070Z,2
2018-03-04T14:31:00.567Z,1
2018-03-04T14:32:02.638Z,2
2018-03-04T14:33:02.435Z,2
2018-03-04T14:35:24.458Z,2
2018-03-04T14:36:26.197Z,3
2018-03-04T14:37:27.655Z,2
2018-03-04T14:38:28.454Z,2
2018-03-04T14:39:29.601Z,2
2018-03-04T14:40:30.426Z,1
2018-03-04T14:41:31.134Z,1
2018-03-04T14:42:32.976Z,1
2018-03-04T14:43:33.959Z,3
2018-03-04T14:44:34.967Z,1
2018-03-04T14:45:35.415Z,1
2018-03-04T14:46:37.391Z,3
2018-03-04T14:47:38.508Z,1
2018-03-04T14:48:41.051Z,2
2018-03-04T14:49:39.613Z,2
2018-03-04T14:50:40.566Z,3
2018-03-04T14:51:42.427Z,1
2018-03-04T14:52:43.003Z,2
2018-03-04T14:56:13.313Z,3
2018-03-04T14:56:53.182Z,3
2018-03-04T14:57:55.527Z,2
2018-03-04T14:58:55.810Z,1
2018-03-04T14:59:56.700Z,1
2018-03-04T15:00:57.469Z,1
2018-03-04T15:01:58.192Z,2
2018-03-04T15:04:00.454Z,1
2018-03-04T15:05:03.615Z,2
2018-03-04T15:06:02.218Z,2
2018-03-04T15:07:02.881Z,3
2018-03-04T15:08:04.805Z,1
2018-03-04T15:09:05.242Z,3
2018-03-04T15:10:06.030Z,3
2018-03-04T15:11:07.597Z,3
2018-03-04T15:12:08.080Z,1
2018-03-04T15:13:09.102Z,2
2018-03-04T15:14:10.161Z,3
2018-03-04T15:15:11.039Z,3
2018-03-04T15:16:12.734Z,2
2018-03-04T15:17:13.826Z,2
2018-03-04T15:18:14.845Z,3
2018-03-04T15:19:16.650Z,3
2018-03-04T15:20:16.952Z,3
2018-03-04T15:21:17.702Z,2
2018-03-04T15:22:18.524Z,3
2018-03-04T15:23:19.380Z,2
2018-03-04T15:24:20.768Z,1
2018-03-04T15:25:21.276Z,1
2018-03-04T15:26:22.294Z,1
2018-03-04T15:27:23.073Z,1
2018-03-04T15:28:24.147Z,1
2018-03-04T15:29:25.916Z,1
2018-03-04T15:30:26.056Z,2
2018-03-04T15:31:26.990Z,1
2018-03-04T15:32:28.217Z,1
2018-03-04T15:33:30.371Z,2
2018-03-04T15:34:30.542Z,3
2018-03-04T15:35:31.251Z,1
2018-03-04T15:36:32.458Z,3
2018-03-04T15:37:33.520Z,3
2018-03-04T15:38:34.671Z,1
2018-03-04T15:39:37.919Z,4
2018-03-04T15:40:37.189Z,3
2018-03-04T15:41:37.448Z,1
2018-03-04T15:42:38.462Z,1
2018-03-04T15:43:39.248Z,1
2018-03-04T15:44:40.860Z,4
2018-03-04T15:45:41.217Z,2
2018-03-04T15:46:41.933Z,2
2018-03-04T15:47:43.062Z,3
2018-03-04T15:48:44.144Z,3
2018-03-04T15:49:45.778Z,3
2018-03-04T15:50:46.007Z,2
2018-03-04T15:51:47.648Z,3
2018-03-04T15:52:48.961Z,4
2018-03-04T15:53:49.673Z,4
2018-03-04T15:54:52.324Z,4
2018-03-04T15:55:51.641Z,2
2018-03-04T15:56:52.394Z,2
2018-03-04T15:57:53.573Z,4
2018-03-04T15:58:54.946Z,4
2018-03-04T15:59:55.926Z,4
2018-03-04T16:00:56.411Z,1
2018-03-04T16:01:57.376Z,4
2018-03-04T16:02:58.212Z,2
2018-03-04T16:03:58.923Z,3
2018-03-04T16:05:00.674Z,4
2018-03-04T16:06:01.069Z,4
2018-03-04T16:07:01.658Z,3
2018-03-04T16:08:03.204Z,4
2018-03-04T16:09:04.410Z,4
2018-03-04T16:10:05.235Z,4
2018-03-04T16:11:06.568Z,4
2018-03-04T16:12:09.670Z,3
2018-03-04T16:13:08.694Z,4
2018-03-04T16:14:12.114Z,2
2018-03-04T16:15:11.309Z,4
2018-03-04T16:16:11.755Z,3
2018-03-04T16:17:12.215Z,4
2018-03-04T16:18:13.842Z,2
2018-03-04T16:19:14.193Z,2
2018-03-04T16:20:15.841Z,4
2018-03-04T16:21:16.334Z,2
2018-03-04T16:22:17.829Z,4
2018-03-04T16:23:18.234Z,2
2018-03-04T16:24:18.929Z,4
2018-03-04T16:25:21.238Z,2
2018-03-04T16:26:24.948Z,4
2018-03-04T16:27:22.096Z,2
2018-03-04T16:28:22.582Z,4
2018-03-04T16:29:24.045Z,3
2018-03-04T16:30:25.229Z,4
2018-03-04T16:31:26.793Z,3
2018-03-04T16:32:27.449Z,3
2018-03-04T16:33:28.686Z,2
2018-03-04T16:34:29.898Z,2
2018-03-04T16:35:31.872Z,4
2018-03-04T16:36:31.450Z,2
2018-03-04T16:37:52.118Z,2
2018-03-04T16:38:33.426Z,4
2018-03-04T16:39:34.460Z,4
2018-03-04T16:40:36.352Z,4
2018-03-04T16:41:35.940Z,4
2018-03-04T16:42:37.056Z,4
2018-03-04T16:43:38.264Z,4
2018-03-04T16:44:39.228Z,4
2018-03-04T16:45:40.846Z,4
2018-03-04T16:46:41.326Z,4
2018-03-04T16:47:41.989Z,2
2018-03-04T16:48:43.046Z,2
2018-03-04T16:49:43.761Z,3
2018-03-04T16:50:45.597Z,3
2018-03-04T16:51:46.705Z,4
2018-03-04T16:52:47.524Z,4
2018-03-04T16:53:48.704Z,4
2018-03-04T16:54:49.746Z,3
2018-03-04T16:55:50.762Z,5
2018-03-04T16:56:51.377Z,2